Time;durP1;ratioP1;P1;durP2;ratioP2;P2;SDS_P1;SDS_P2;PMS_P1;PMS_P2;Temp;Humidity;BMP_temperature;BMP_pressure;BME280_temperature;BME280_humidity;BME280_pressure;Samples;Min_cycle;Max_cycle;Signal;HPM_P1;HPM_P2
2023/10/23 00:00:02;;;;;;;;;;;;;;;13.50;100.00;99626.44;4962852;28;20119;-77
2023/10/23 00:02:38;;;;;;;;;;;;;;;13.39;100.00;99630.19;4962233;28;20291;-77
2023/10/23 00:05:04;;;;;;;;;;;;;;;13.44;100.00;99638.50;4963228;28;20004;-75
2023/10/23 00:07:29;;;;;;;;;;;;;;;13.35;100.00;99639.47;4961313;28;19957;-77
2023/10/23 00:09:55;;;;;;;;;;;;;;;13.30;100.00;99640.94;4963501;28;19929;-77
2023/10/23 00:12:20;;;;;;;;;;;;;;;13.27;100.00;99642.06;4960589;28;20359;-77
2023/10/23 00:14:46;;;;;;;;;;;;;;;13.26;100.00;99640.41;4962855;28;20359;-77
2023/10/23 00:17:11;;;;;;;;;;;;;;;13.18;100.00;99647.50;4960480;28;19922;-77
2023/10/23 00:19:36;;;;;;;;;;;;;;;13.23;100.00;99646.03;4961793;28;19922;-75
2023/10/23 00:22:02;;;;;;;;;;;;;;;13.22;100.00;99641.72;4963268;28;19974;-77
2023/10/23 00:24:27;;;;;;;;;;;;;;;13.28;100.00;99651.69;4960538;28;19923;-76
2023/10/23 00:26:52;;;;;;;;;;;;;;;13.32;100.00;99657.50;4963849;28;19929;-76
2023/10/23 00:29:18;;;;;;;;;;;;;;;13.32;100.00;99655.66;4960746;28;19923;-77
2023/10/23 00:31:43;;;;;;;;;;;;;;;13.35;100.00;99655.38;4960629;28;19922;-77
2023/10/23 00:34:08;;;;;;;;;;;;;;;13.39;100.00;99651.41;4962140;28;19922;-76
2023/10/23 00:36:34;;;;;;;;;;;;;;;13.43;100.00;99658.03;4961737;28;19922;-76
2023/10/23 00:38:59;;;;;;;;;;;;;;;13.45;100.00;99642.81;4962877;28;20024;-77
2023/10/23 00:41:24;;;;;;;;;;;;;;;13.44;100.00;99641.16;4958941;28;19949;-77
2023/10/23 00:43:50;;;;;;;;;;;;;;;13.43;100.00;99647.44;4961863;28;19926;-77
2023/10/23 00:46:19;;;;;;;;;;;;;;;13.43;100.00;99652.75;4961184;28;19934;-77
2023/10/23 00:48:46;;;;;;;;;;;;;;;13.44;100.00;99638.50;4962526;28;20006;-77
2023/10/23 00:51:12;;;;;;;;;;;;;;;13.48;100.00;99645.19;4963144;28;19979;-77
2023/10/23 00:53:38;;;;;;;;;;;;;;;13.47;100.00;99647.97;4960926;28;19922;-78
2023/10/23 00:56:06;;;;;;;;;;;;;;;13.49;100.00;99646.81;4961323;28;19922;-78
2023/10/23 00:58:32;;;;;;;;;;;;;;;13.50;100.00;99653.78;4960152;28;20694;-78
2023/10/23 01:00:57;;;;;;;;;;;;;;;13.53;100.00;99653.47;4957177;28;19954;-76
2023/10/23 01:03:25;;;;;;;;;;;;;;;13.52;100.00;99654.47;4961790;28;19923;-78
2023/10/23 01:05:50;;;;;;;;;;;;;;;13.56;100.00;99651.47;4963750;28;19923;-76
2023/10/23 01:08:16;;;;;;;;;;;;;;;13.58;100.00;99652.16;4966821;28;20410;-77
2023/10/23 01:10:41;;;;;;;;;;;;;;;13.55;100.00;99665.75;4965311;28;19929;-76
2023/10/23 01:13:07;;;;;;;;;;;;;;;13.58;100.00;99666.25;4965102;28;20383;-78
2023/10/23 01:15:32;;;;;;;;;;;;;;;13.52;100.00;99667.72;4965144;28;20008;-78
2023/10/23 01:17:59;;;;;;;;;;;;;;;13.57;100.00;99664.59;4963923;28;19981;-78
2023/10/23 01:20:26;;;;;;;;;;;;;;;13.55;100.00;99665.75;4967394;28;19993;-78
2023/10/23 01:22:54;;;;;;;;;;;;;;;13.52;100.00;99667.72;4958686;28;20013;-78
2023/10/23 01:25:19;;;;;;;;;;;;;;;13.50;100.00;99667.03;4967309;28;19996;-78
2023/10/23 01:27:45;;;;;;;;;;;;;;;13.47;100.00;99669.19;4962839;28;20375;-77
2023/10/23 01:30:10;;;;;;;;;;;;;;;13.45;100.00;99669.34;4965775;28;20453;-78
2023/10/23 01:32:36;;;;;;;;;;;;;;;13.41;100.00;99664.50;4965482;28;19957;-78
2023/10/23 01:35:01;;;;;;;;;;;;;;;13.42;100.00;99651.09;4963153;28;20061;-76
2023/10/23 01:37:27;;;;;;;;;;;;;;;13.42;100.00;99656.41;4966953;28;19945;-78
2023/10/23 01:39:52;;;;;;;;;;;;;;;13.43;100.00;99663.34;4959393;28;20009;-77
2023/10/23 01:42:18;;;;;;;;;;;;;;;13.43;100.00;99657.25;4966532;28;20389;-77
2023/10/23 01:44:43;;;;;;;;;;;;;;;13.47;100.00;99658.56;4964094;28;19918;-78
2023/10/23 01:47:09;;;;;;;;;;;;;;;13.48;100.00;99658.44;4964821;28;19923;-77
2023/10/23 01:49:34;;;;;;;;;;;;;;;13.49;100.00;99662.72;4965245;28;19922;-77
2023/10/23 01:51:59;;;;;;;;;;;;;;;13.45;100.00;99660.53;4962558;28;19925;-77
2023/10/23 01:54:25;;;;;;;;;;;;;;;13.40;100.00;99668.97;4966885;28;19922;-78
2023/10/23 01:56:50;;;;;;;;;;;;;;;13.41;100.00;99670.66;4961692;28;19930;-78
2023/10/23 01:59:16;;;;;;;;;;;;;;;13.38;100.00;99675.41;4964198;28;20017;-77
2023/10/23 02:01:41;;;;;;;;;;;;;;;13.31;100.00;99677.84;4964633;28;20026;-77
2023/10/23 02:04:07;;;;;;;;;;;;;;;13.19;100.00;99681.78;4965225;28;20009;-76
2023/10/23 02:06:32;;;;;;;;;;;;;;;13.22;100.00;99676.16;4963972;28;19976;-77
2023/10/23 02:08:59;;;;;;;;;;;;;;;13.19;100.00;99679.13;4962939;28;20726;-77
2023/10/23 02:11:24;;;;;;;;;;;;;;;13.06;100.00;99673.38;4966783;28;19918;-77
2023/10/23 02:13:49;;;;;;;;;;;;;;;13.07;100.00;99678.53;4963001;28;20438;-77
2023/10/23 02:16:15;;;;;;;;;;;;;;;12.90;100.00;99679.38;4962201;28;19968;-77
2023/10/23 02:18:40;;;;;;;;;;;;;;;12.93;100.00;99687.03;4964006;28;19937;-78
2023/10/23 02:21:05;;;;;;;;;;;;;;;12.78;100.00;99685.09;4963623;28;19922;-78
2023/10/23 02:23:31;;;;;;;;;;;;;;;12.64;100.00;99671.41;4963430;28;19950;-78
2023/10/23 02:25:57;;;;;;;;;;;;;;;12.63;100.00;99661.81;4964525;28;19933;-76
2023/10/23 02:28:23;;;;;;;;;;;;;;;12.69;100.00;99653.25;4962980;28;19923;-77
2023/10/23 02:30:48;;;;;;;;;;;;;;;12.63;100.00;99642.44;4965144;28;20315;-77
2023/10/23 02:33:13;;;;;;;;;;;;;;;12.54;100.00;99638.91;4963270;28;19961;-77
2023/10/23 02:35:38;;;;;;;;;;;;;;;12.55;100.00;99629.97;4962779;28;19922;-77
2023/10/23 02:38:05;;;;;;;;;;;;;;;12.57;100.00;99627.19;4963371;28;20334;-77
2023/10/23 02:40:30;;;;;;;;;;;;;;;12.57;100.00;99628.00;4962852;28;19930;-77
2023/10/23 02:42:56;;;;;;;;;;;;;;;12.55;100.00;99640.56;4965820;28;19926;-77
2023/10/23 02:45:21;;;;;;;;;;;;;;;12.49;100.00;99633.22;4962550;28;19922;-78
2023/10/23 02:47:46;;;;;;;;;;;;;;;12.57;100.00;99638.59;4963919;28;19930;-75
2023/10/23 02:50:12;;;;;;;;;;;;;;;12.57;100.00;99638.59;4963511;28;20020;-76
2023/10/23 02:52:37;;;;;;;;;;;;;;;12.62;100.00;99644.25;4961958;28;20391;-77
2023/10/23 02:55:03;;;;;;;;;;;;;;;12.72;100.00;99647.63;4964599;28;20294;-76
2023/10/23 02:57:28;;;;;;;;;;;;;;;12.79;100.00;99647.03;4962316;28;19933;-77
2023/10/23 02:59:55;;;;;;;;;;;;;;;12.86;100.00;99648.06;4965249;28;20611;-77
2023/10/23 03:02:20;;;;;;;;;;;;;;;12.94;100.00;99645.50;4960642;28;20112;-77
2023/10/23 03:04:45;;;;;;;;;;;;;;;12.99;100.00;99643.19;4963847;28;19923;-77
2023/10/23 03:07:11;;;;;;;;;;;;;;;13.04;100.00;99656.81;4963185;28;19945;-76
2023/10/23 03:09:36;;;;;;;;;;;;;;;13.08;100.00;99650.19;4962796;28;19922;-77
2023/10/23 03:12:02;;;;;;;;;;;;;;;13.10;100.00;99650.88;4964272;28;20294;-77
2023/10/23 03:14:27;;;;;;;;;;;;;;;13.13;100.00;99646.13;4961870;28;19922;-77
2023/10/23 03:16:53;;;;;;;;;;;;;;;13.15;100.00;99651.28;4964764;28;19946;-77
2023/10/23 03:19:19;;;;;;;;;;;;;;;13.18;100.00;99652.78;4960185;28;20458;-77
2023/10/23 03:21:45;;;;;;;;;;;;;;;13.19;100.00;99650.00;4963785;28;20446;-77
2023/10/23 03:24:10;;;;;;;;;;;;;;;13.22;100.00;99649.66;4963193;28;19957;-75
2023/10/23 03:26:35;;;;;;;;;;;;;;;13.24;100.00;99650.34;4965426;28;19968;-77
2023/10/23 03:29:01;;;;;;;;;;;;;;;13.24;100.00;99647.69;4960383;28;20020;-77
2023/10/23 03:31:26;;;;;;;;;;;;;;;13.25;100.00;99646.72;4964556;28;19922;-77
2023/10/23 03:33:51;;;;;;;;;;;;;;;13.18;100.00;99653.63;4960937;28;19966;-77
2023/10/23 03:36:17;;;;;;;;;;;;;;;13.16;100.00;99647.63;4962553;28;20305;-77
2023/10/23 03:38:44;;;;;;;;;;;;;;;13.18;100.00;99653.63;4960720;28;20609;-77
2023/10/23 03:41:09;;;;;;;;;;;;;;;13.18;100.00;99644.84;4961448;28;19979;-77
2023/10/23 03:43:35;;;;;;;;;;;;;;;13.20;100.00;99645.50;4963563;28;20379;-77
2023/10/23 03:46:03;;;;;;;;;;;;;;;13.22;100.00;99644.38;4961199;28;20311;-77
2023/10/23 03:48:29;;;;;;;;;;;;;;;13.21;100.00;99648.00;4963606;28;20387;-77
2023/10/23 03:50:58;;;;;;;;;;;;;;;13.20;100.00;99635.72;4963893;28;19922;-77
2023/10/23 03:53:23;;;;;;;;;;;;;;;13.20;100.00;99645.50;4957187;28;19930;-77
2023/10/23 03:55:49;;;;;;;;;;;;;;;13.15;100.00;99639.84;4963395;28;19977;-77
2023/10/23 03:58:14;;;;;;;;;;;;;;;13.11;100.00;99648.09;4961741;28;19922;-77
2023/10/23 04:00:39;;;;;;;;;;;;;;;13.08;100.00;99647.53;4962086;28;19922;-77
2023/10/23 04:03:05;;;;;;;;;;;;;;;13.08;100.00;99655.50;4961922;28;20016;-77
2023/10/23 04:05:30;;;;;;;;;;;;;;;13.09;100.00;99657.16;4963594;28;19932;-77
2023/10/23 04:07:55;;;;;;;;;;;;;;;13.09;100.00;99659.81;4960022;28;19922;-77
2023/10/23 04:10:21;;;;;;;;;;;;;;;13.08;100.00;99652.84;4963778;28;20024;-77
2023/10/23 04:12:46;;;;;;;;;;;;;;;13.05;100.00;99658.47;4961124;28;19922;-76
2023/10/23 04:15:12;;;;;;;;;;;;;;;13.06;100.00;99660.16;4979143;23;19945;-74
2023/10/23 04:17:37;;;;;;;;;;;;;;;13.03;100.00;99671.03;4963345;28;19922;-74
2023/10/23 04:20:03;;;;;;;;;;;;;;;12.88;100.00;99667.31;4960908;28;19927;-75
2023/10/23 04:22:28;;;;;;;;;;;;;;;12.88;100.00;99662.84;4964225;28;20009;-73
2023/10/23 04:24:54;;;;;;;;;;;;;;;12.94;100.00;99666.69;4961032;28;19930;-75
2023/10/23 04:27:20;;;;;;;;;;;;;;;12.98;100.00;99662.72;4964121;28;19922;-75
2023/10/23 04:29:46;;;;;;;;;;;;;;;12.97;100.00;99671.66;4961541;28;20330;-75
2023/10/23 04:32:11;;;;;;;;;;;;;;;12.96;100.00;99670.00;4963213;28;19929;-75
2023/10/23 04:34:37;;;;;;;;;;;;;;;12.94;100.00;99666.69;4963202;28;19922;-75
2023/10/23 04:37:03;;;;;;;;;;;;;;;12.92;100.00;99671.28;4961481;28;19922;-74
2023/10/23 04:39:28;;;;;;;;;;;;;;;12.97;100.00;99674.31;4966346;28;20302;-74
2023/10/23 04:41:54;;;;;;;;;;;;;;;12.92;100.00;99672.13;4964943;28;19922;-74
2023/10/23 04:44:19;;;;;;;;;;;;;;;12.80;100.00;99677.81;4966491;28;19966;-75
2023/10/23 04:46:45;;;;;;;;;;;;;;;12.70;100.00;99681.41;4965705;28;20391;-76
2023/10/23 04:49:11;;;;;;;;;;;;;;;12.71;100.00;99677.78;4966776;28;19923;-74
2023/10/23 04:51:37;;;;;;;;;;;;;;;12.74;100.00;99676.63;4966846;28;19922;-74
2023/10/23 04:54:02;;;;;;;;;;;;;;;12.77;100.00;99675.50;4965264;28;19923;-75
2023/10/23 04:56:28;;;;;;;;;;;;;;;12.82;100.00;99675.84;4963811;28;20070;-72
2023/10/23 04:58:53;;;;;;;;;;;;;;;12.86;100.00;99685.16;4959071;28;19926;-73
2023/10/23 05:01:19;;;;;;;;;;;;;;;12.89;100.00;99679.56;4954559;28;19933;-73
2023/10/23 05:03:44;;;;;;;;;;;;;;;12.92;100.00;99668.63;4954619;28;19929;-74
2023/10/23 05:06:10;;;;;;;;;;;;;;;12.94;100.00;99669.34;4961810;28;19945;-75
2023/10/23 05:08:36;;;;;;;;;;;;;;;12.97;100.00;99664.53;4965263;28;20303;-74
2023/10/23 05:11:06;;;;;;;;;;;;;;;12.99;100.00;99675.00;4968750;28;20024;-73
2023/10/23 05:13:31;;;;;;;;;;;;;;;12.96;100.00;99685.91;4959613;28;19962;-74
2023/10/23 05:16:04;;;;;;;;;;;;;;;12.98;100.00;99682.09;4964627;28;19939;-74
2023/10/23 05:18:33;;;;;;;;;;;;;;;12.98;100.00;99679.44;4958876;28;19954;-75
2023/10/23 05:20:58;;;;;;;;;;;;;;;12.97;100.00;99672.50;4965123;28;19977;-73
2023/10/23 05:23:24;;;;;;;;;;;;;;;12.96;100.00;99691.22;4961717;28;20013;-74
2023/10/23 05:25:49;;;;;;;;;;;;;;;13.00;100.00;99692.56;4972764;28;19929;-74
2023/10/23 05:28:15;;;;;;;;;;;;;;;13.00;100.00;99697.84;4974634;28;19958;-73
2023/10/23 05:30:40;;;;;;;;;;;;;;;13.00;100.00;99688.09;4968012;28;19922;-73
2023/10/23 05:33:06;;;;;;;;;;;;;;;13.03;100.00;99692.22;4966976;28;19926;-74
2023/10/23 05:35:32;;;;;;;;;;;;;;;13.00;100.00;99703.97;4966478;28;19923;-75
2023/10/23 05:37:57;;;;;;;;;;;;;;;12.99;100.00;99696.19;4270810;28;10000825;-72
2023/10/23 05:40:22;;;;;;;;;;;;;;;12.99;100.00;99697.00;4958787;28;20307;-74
2023/10/23 05:42:48;;;;;;;;;;;;;;;13.00;100.00;99681.94;4953649;28;19996;-72
2023/10/23 05:45:13;;;;;;;;;;;;;;;13.01;100.00;99688.91;4961813;28;19922;-73
2023/10/23 05:47:39;;;;;;;;;;;;;;;13.00;100.00;99687.25;4961795;28;19982;-73
2023/10/23 05:50:04;;;;;;;;;;;;;;;13.02;100.00;99702.00;4959813;28;20003;-74
2023/10/23 05:52:30;;;;;;;;;;;;;;;12.99;100.00;99704.13;4962151;28;19918;-74
2023/10/23 05:54:55;;;;;;;;;;;;;;;12.93;100.00;99697.63;4954383;28;20485;-75
2023/10/23 05:57:21;;;;;;;;;;;;;;;12.94;100.00;99698.47;4958659;28;19926;-75
2023/10/23 05:59:46;;;;;;;;;;;;;;;12.93;100.00;99707.38;4957269;28;20363;-76
2023/10/23 06:02:11;;;;;;;;;;;;;;;12.96;100.00;99712.41;4960454;28;19929;-74
2023/10/23 06:04:37;;;;;;;;;;;;;;;12.99;100.00;99717.38;4957893;28;19975;-73
2023/10/23 06:07:03;;;;;;;;;;;;;;;13.02;100.00;99719.69;4966255;28;19926;-74
2023/10/23 06:09:28;;;;;;;;;;;;;;;13.04;100.00;99741.56;4959648;28;19930;-73
2023/10/23 06:11:54;;;;;;;;;;;;;;;13.04;100.00;99736.28;4964172;28;20020;-74
2023/10/23 06:14:19;;;;;;;;;;;;;;;13.04;100.00;99730.97;4955666;28;19973;-74
2023/10/23 06:16:45;;;;;;;;;;;;;;;13.02;100.00;99743.53;4960225;28;19926;-73
2023/10/23 06:19:10;;;;;;;;;;;;;;;12.90;100.00;99747.44;4955727;28;19929;-74
2023/10/23 06:21:36;;;;;;;;;;;;;;;12.95;100.00;99750.47;4961288;28;19926;-73
2023/10/23 06:24:03;;;;;;;;;;;;;;;12.96;100.00;99747.63;4954434;28;19922;-74
2023/10/23 06:26:35;;;;;;;;;;;;;;;12.89;100.00;99743.97;4837719;28;10000522;-74
2023/10/23 06:29:00;;;;;;;;;;;;;;;12.90;100.00;99745.59;4952844;28;19933;-74
2023/10/23 06:31:26;;;;;;;;;;;;;;;12.88;100.00;99749.41;4959766;28;19922;-74
2023/10/23 06:33:52;;;;;;;;;;;;;;;12.86;100.00;99746.06;4955821;28;20409;-74
2023/10/23 06:36:18;;;;;;;;;;;;;;;12.85;100.00;99747.03;4964356;28;21298;-73
2023/10/23 06:38:43;;;;;;;;;;;;;;;12.90;100.00;99760.69;4965164;28;19949;-73
2023/10/23 06:41:08;;;;;;;;;;;;;;;12.82;100.00;99757.94;4961462;28;19922;-73
2023/10/23 06:43:35;;;;;;;;;;;;;;;12.84;100.00;99762.09;4964182;28;20001;-73
2023/10/23 06:46:01;;;;;;;;;;;;;;;12.82;100.00;99769.38;4960081;28;19957;-73
2023/10/23 06:48:28;;;;;;;;;;;;;;;12.89;100.00;99774.91;4958211;28;20451;-73
2023/10/23 06:50:54;;;;;;;;;;;;;;;12.91;100.00;99778.22;4962263;28;20401;-76
2023/10/23 06:53:19;;;;;;;;;;;;;;;12.96;100.00;99786.56;4962935;28;19922;-75
2023/10/23 06:55:48;;;;;;;;;;;;;;;13.01;100.00;99794.88;4962917;28;19978;-75
2023/10/23 06:58:13;;;;;;;;;;;;;;;13.04;100.00;99789.25;4961145;28;20017;-75
2023/10/23 07:00:38;;;;;;;;;;;;;;;13.08;100.00;99785.31;4959738;28;20089;-75
2023/10/23 07:03:04;;;;;;;;;;;;;;;13.12;100.00;99794.66;4962546;28;19953;-74
2023/10/23 07:05:29;;;;;;;;;;;;;;;13.17;100.00;99795.03;4959385;28;19971;-74
2023/10/23 07:07:55;;;;;;;;;;;;;;;13.16;100.00;99803.13;4941444;28;20583;-74
2023/10/23 07:10:20;;;;;;;;;;;;;;;13.15;100.00;99806.75;4964011;28;19933;-77
2023/10/23 07:12:46;;;;;;;;;;;;;;;13.21;100.00;99812.28;4954985;28;19926;-76
2023/10/23 07:15:11;;;;;;;;;;;;;;;13.28;100.00;99808.03;4962562;28;19922;-75
2023/10/23 07:17:37;;;;;;;;;;;;;;;13.32;100.00;99808.56;4959641;28;19930;-75
2023/10/23 07:20:06;;;;;;;;;;;;;;;13.36;100.00;99821.38;4962860;28;19923;-74
2023/10/23 07:22:34;;;;;;;;;;;;;;;13.38;100.00;99829.97;4961678;28;20053;-76
2023/10/23 07:25:00;;;;;;;;;;;;;;;13.42;100.00;99831.34;4965159;28;19922;-76
2023/10/23 07:27:26;;;;;;;;;;;;;;;13.44;100.00;99829.38;4961477;28;20187;-76
2023/10/23 07:29:51;;;;;;;;;;;;;;;13.45;100.00;99833.69;4946046;28;19973;-75
2023/10/23 07:32:17;;;;;;;;;;;;;;;13.49;100.00;99837.69;4960165;28;19929;-74
2023/10/23 07:34:42;;;;;;;;;;;;;;;13.54;100.00;99831.94;4961289;28;19998;-77
2023/10/23 07:37:08;;;;;;;;;;;;;;;13.48;100.00;99830.75;4961365;28;19926;-76
2023/10/23 07:39:33;;;;;;;;;;;;;;;13.53;100.00;99812.53;4962821;28;19922;-74
2023/10/23 07:41:59;;;;;;;;;;;;;;;13.55;100.00;99815.03;4962985;28;19973;-75
2023/10/23 07:44:26;;;;;;;;;;;;;;;13.59;100.00;99827.00;4956812;28;19922;-73
2023/10/23 07:46:52;;;;;;;;;;;;;;;13.62;100.00;99836.44;4961525;28;19922;-75
2023/10/23 07:49:17;;;;;;;;;;;;;;;13.64;100.00;99847.75;4965159;28;20001;-75
2023/10/23 07:51:43;;;;;;;;;;;;;;;13.65;100.00;99852.06;4960314;28;19922;-75
2023/10/23 07:54:08;;;;;;;;;;;;;;;13.64;100.00;99851.22;4962526;28;19985;-76
2023/10/23 07:56:34;;;;;;;;;;;;;;;13.63;100.00;99844.25;4960030;28;19926;-74
2023/10/23 07:58:59;;;;;;;;;;;;;;;13.64;100.00;99845.94;4961047;28;19926;-75
2023/10/23 08:01:25;;;;;;;;;;;;;;;13.66;100.00;99853.72;4961131;28;20013;-75
2023/10/23 08:03:50;;;;;;;;;;;;;;;13.65;100.00;99855.56;4962709;28;19984;-76
2023/10/23 08:06:16;;;;;;;;;;;;;;;13.64;100.00;99850.41;4960860;28;20022;-75
2023/10/23 08:08:43;;;;;;;;;;;;;;;13.63;100.00;99833.66;4961884;28;19945;-74
2023/10/23 08:11:09;;;;;;;;;;;;;;;13.63;100.00;99827.50;4964100;28;20028;-75
2023/10/23 08:13:35;;;;;;;;;;;;;;;13.62;100.00;99825.84;4959385;28;19969;-75
2023/10/23 08:16:01;;;;;;;;;;;;;;;13.63;100.00;99830.16;4961694;28;20005;-75
2023/10/23 08:18:26;;;;;;;;;;;;;;;13.67;100.00;99834.16;4962709;28;19926;-74
2023/10/23 08:20:52;;;;;;;;;;;;;;;13.68;100.00;99835.81;4959781;28;19922;-75
2023/10/23 08:23:17;;;;;;;;;;;;;;;13.69;100.00;99829.53;4961052;28;19922;-75
2023/10/23 08:25:44;;;;;;;;;;;;;;;13.75;100.00;99842.19;4962072;28;19926;-77
2023/10/23 08:28:10;;;;;;;;;;;;;;;13.79;100.00;99840.88;4959503;28;20399;-76
2023/10/23 08:30:35;;;;;;;;;;;;;;;13.83;100.00;99844.91;4964062;28;20025;-75
2023/10/23 08:33:01;;;;;;;;;;;;;;;13.81;100.00;99846.84;4959030;28;19922;-75
2023/10/23 08:35:29;;;;;;;;;;;;;;;13.83;100.00;99850.19;4961004;28;19929;-75
2023/10/23 08:37:55;;;;;;;;;;;;;;;13.80;100.00;99850.50;4958059;28;19918;-75
2023/10/23 08:40:23;;;;;;;;;;;;;;;13.81;100.00;99846.84;4960145;28;19922;-75
2023/10/23 08:42:49;;;;;;;;;;;;;;;13.79;100.00;99848.81;4961031;28;20406;-73
2023/10/23 08:45:15;;;;;;;;;;;;;;;13.84;100.00;99846.56;4961628;28;19922;-75
2023/10/23 08:47:40;;;;;;;;;;;;;;;13.89;100.00;99849.56;4959369;28;19922;-75
2023/10/23 08:50:06;;;;;;;;;;;;;;;13.90;100.00;99856.56;4962381;28;20052;-75
2023/10/23 08:52:34;;;;;;;;;;;;;;;13.92;100.00;99865.16;4960452;28;19973;-75
2023/10/23 08:55:00;;;;;;;;;;;;;;;13.93;100.00;99859.72;4958891;28;19973;-74
2023/10/23 08:57:27;;;;;;;;;;;;;;;13.94;100.00;99865.84;4959817;28;20024;-74
2023/10/23 08:59:52;;;;;;;;;;;;;;;13.94;100.00;99874.66;4960158;28;20379;-75
2023/10/23 09:02:18;;;;;;;;;;;;;;;13.96;100.00;99873.66;4956044;28;19923;-75
2023/10/23 09:04:43;;;;;;;;;;;;;;;13.94;100.00;99873.81;4963174;28;19977;-76
2023/10/23 09:07:09;;;;;;;;;;;;;;;13.97;100.00;99876.13;4961968;28;19923;-77
2023/10/23 09:09:34;;;;;;;;;;;;;;;13.97;100.00;99877.94;4964154;28;20382;-76
2023/10/23 09:12:03;;;;;;;;;;;;;;;13.98;100.00;99880.47;4954991;28;19929;-74
2023/10/23 09:14:31;;;;;;;;;;;;;;;14.01;100.00;99877.50;4957730;28;19953;-74
2023/10/23 09:16:56;;;;;;;;;;;;;;;14.05;100.00;99870.88;4960588;28;19926;-75
2023/10/23 09:19:39;;;;;;;;;;;;;;;14.08;100.00;99875.06;4962344;28;19921;-76
2023/10/23 09:22:06;;;;;;;;;;;;;;;14.07;100.00;99866.28;4957256;28;20398;-75
2023/10/23 09:24:32;;;;;;;;;;;;;;;14.10;100.00;99863.28;4962552;28;20461;-76
2023/10/23 09:26:57;;;;;;;;;;;;;;;14.14;100.00;99861.97;4960325;28;19930;-75
2023/10/23 09:29:23;;;;;;;;;;;;;;;14.23;100.00;99857.53;4963081;28;19926;-75
2023/10/23 09:31:50;;;;;;;;;;;;;;;14.31;100.00;99850.44;4960147;28;19953;-75
2023/10/23 09:34:18;;;;;;;;;;;;;;;14.43;100.00;99853.66;4277611;28;10000722;-74
2023/10/23 09:36:44;;;;;;;;;;;;;;;14.57;100.00;99860.19;4964328;28;20402;-75
2023/10/23 09:39:09;;;;;;;;;;;;;;;14.68;100.00;99857.25;4962258;28;20401;-75
2023/10/23 09:41:37;;;;;;;;;;;;;;;14.81;100.00;99852.31;4957605;28;19926;-75
2023/10/23 09:44:04;;;;;;;;;;;;;;;14.90;100.00;99847.84;4616436;28;10000897;-75
2023/10/23 09:46:29;;;;;;;;;;;;;;;15.00;100.00;99851.19;4959182;28;20341;-75
2023/10/23 09:49:03;;;;;;;;;;;;;;;15.04;100.00;99853.34;4964803;28;20016;-75
2023/10/23 09:51:30;;;;;;;;;;;;;;;15.06;100.00;99854.03;4960009;28;19926;-75
2023/10/23 09:53:59;;;;;;;;;;;;;;;15.14;100.00;99854.00;4958854;28;19969;-75
2023/10/23 09:56:28;;;;;;;;;;;;;;;15.23;100.00;99865.50;4961762;28;19968;-74
2023/10/23 09:58:57;;;;;;;;;;;;;;;15.33;100.00;99857.34;4965199;28;20004;-75
2023/10/23 10:01:27;;;;;;;;;;;;;;;15.39;100.00;99856.69;4965110;28;19985;-74
2023/10/23 10:03:56;;;;;;;;;;;;;;;15.40;100.00;99851.22;4962257;28;19965;-76
2023/10/23 10:06:24;;;;;;;;;;;;;;;15.44;100.00;99854.34;4964913;28;19977;-74
2023/10/23 10:08:50;;;;;;;;;;;;;;;15.40;100.00;99850.38;4961515;28;19941;-75
2023/10/23 10:11:17;;;;;;;;;;;;;;;15.38;100.00;99855.03;4964342;28;20020;-76
2023/10/23 10:13:44;;;;;;;;;;;;;;;15.44;100.00;99843.72;4961158;28;20363;-72
2023/10/23 10:16:10;;;;;;;;;;;;;;;15.45;100.00;99842.72;4963275;28;20294;-74
2023/10/23 10:18:35;;;;;;;;;;;;;;;15.49;100.00;99852.84;4962878;28;19930;-73
2023/10/23 10:21:05;;;;;;;;;;;;;;;15.55;100.00;99856.75;4967172;28;19926;-74
2023/10/23 10:23:31;;;;;;;;;;;;;;;15.61;100.00;99850.72;4961678;28;20271;-74
2023/10/23 10:25:56;;;;;;;;;;;;;;;15.62;100.00;99859.53;4961533;28;19927;-74
2023/10/23 10:28:31;;;;;;;;;;;;;;;15.60;100.00;99857.06;4961220;28;19930;-75
2023/10/23 10:30:56;;;;;;;;;;;;;;;15.60;100.00;99865.03;4962347;28;19973;-73
2023/10/23 10:33:24;;;;;;;;;;;;;;;15.53;100.00;99874.69;4959924;28;19968;-74
2023/10/23 10:35:51;;;;;;;;;;;;;;;15.56;100.00;99869.00;4961396;28;20009;-74
2023/10/23 10:38:21;;;;;;;;;;;;;;;15.59;100.00;99852.75;4960660;28;19922;-74
2023/10/23 10:41:14;;;;;;;;;;;;;;;15.65;100.00;99857.38;4963644;28;19970;-74
2023/10/23 10:43:39;;;;;;;;;;;;;;;15.65;100.00;99852.06;4957113;28;20335;-74
2023/10/23 10:46:34;;;;;;;;;;;;;;;15.73;100.00;99854.69;4962417;28;19922;-74
2023/10/23 10:49:03;;;;;;;;;;;;;;;15.79;100.00;99854.03;4948796;28;20004;-74
2023/10/23 10:51:29;;;;;;;;;;;;;;;15.83;100.00;99854.53;4961395;28;20342;-73
2023/10/23 10:54:03;;;;;;;;;;;;;;;15.88;100.00;99853.03;4960055;28;20252;-73
2023/10/23 10:56:29;;;;;;;;;;;;;;;15.89;100.00;99841.38;4960223;28;20299;-74
2023/10/23 10:58:58;;;;;;;;;;;;;;;15.84;100.00;99846.41;4963587;28;19946;-74
2023/10/23 11:01:24;;;;;;;;;;;;;;;15.67;100.00;99855.38;4960329;28;19926;-73
2023/10/23 11:03:50;;;;;;;;;;;;;;;15.71;100.00;99846.06;4962685;28;20012;-72
2023/10/23 11:06:15;;;;;;;;;;;;;;;15.74;100.00;99847.56;4961364;28;19989;-76
2023/10/23 11:08:41;;;;;;;;;;;;;;;15.74;100.00;99828.94;4613165;28;10000069;-73
2023/10/23 11:11:06;;;;;;;;;;;;;;;15.72;100.00;99831.78;4958606;28;20005;-73
2023/10/23 11:13:35;;;;;;;;;;;;;;;15.75;100.00;99825.28;4958698;28;19934;-75
2023/10/23 11:16:00;;;;;;;;;;;;;;;15.72;100.00;99826.47;4958581;28;19968;-75
2023/10/23 11:18:29;;;;;;;;;;;;;;;15.73;100.00;99817.44;4955767;28;19981;-74
2023/10/23 11:21:01;;;;;;;;;;;;;;;15.75;100.00;99812.81;4955277;28;20025;-74
2023/10/23 11:23:30;;;;;;;;;;;;;;;15.79;100.00;99805.31;4955424;28;20266;-76
2023/10/23 11:25:55;;;;;;;;;;;;;;;15.72;100.00;99809.66;4947195;28;20415;-74
2023/10/23 11:28:21;;;;;;;;;;;;;;;15.64;100.00;99817.66;4959083;28;20049;-73
2023/10/23 11:30:49;;;;;;;;;;;;;;;15.53;100.00;99811.69;4949460;28;20391;-72
2023/10/23 11:33:15;;;;;;;;;;;;;;;15.50;100.00;99813.78;4958041;28;19953;-74
2023/10/23 11:35:41;;;;;;;;;;;;;;;15.41;100.00;99814.81;4953938;28;19923;-73
2023/10/23 11:38:12;;;;;;;;;;;;;;;15.32;100.00;99819.28;4955653;28;19933;-72
2023/10/23 11:40:37;;;;;;;;;;;;;;;15.25;100.00;99822.81;4953883;28;19933;-73
2023/10/23 11:43:03;;;;;;;;;;;;;;;15.24;100.00;99826.47;4961405;28;19922;-73
2023/10/23 11:45:29;;;;;;;;;;;;;;;15.20;100.00;99830.44;4949446;28;20359;-74
2023/10/23 11:47:54;;;;;;;;;;;;;;;15.18;100.00;99822.63;4958053;28;20298;-73
2023/10/23 11:50:21;;;;;;;;;;;;;;;15.16;100.00;99824.63;4958474;28;19923;-74
2023/10/23 11:52:48;;;;;;;;;;;;;;;15.20;100.00;99822.47;4953260;28;19929;-74
2023/10/23 11:55:17;;;;;;;;;;;;;;;15.24;100.00;99815.81;4938308;29;19927;-74
2023/10/23 11:57:46;;;;;;;;;;;;;;;15.25;100.00;99806.84;4958214;28;20283;-74
2023/10/23 12:00:13;;;;;;;;;;;;;;;15.31;100.00;99806.19;4958463;28;20300;-75
2023/10/23 12:02:40;;;;;;;;;;;;;;;15.38;100.00;99802.69;4948831;28;19961;-75
2023/10/23 12:05:06;;;;;;;;;;;;;;;15.49;100.00;99793.53;4612424;28;9999665;-75
2023/10/23 12:07:32;;;;;;;;;;;;;;;15.53;100.00;99784.25;4962708;28;19922;-74
2023/10/23 12:09:57;;;;;;;;;;;;;;;15.57;100.00;99785.56;4959705;28;20025;-73
2023/10/23 12:12:23;;;;;;;;;;;;;;;15.65;100.00;99777.59;4959534;28;19978;-74
2023/10/23 12:14:48;;;;;;;;;;;;;;;15.71;100.00;99776.91;4959847;28;19930;-74
2023/10/23 12:17:14;;;;;;;;;;;;;;;15.75;100.00;99772.06;4957686;28;20395;-74
2023/10/23 12:19:39;;;;;;;;;;;;;;;15.72;100.00;99769.75;4953835;28;19923;-74
2023/10/23 12:22:05;;;;;;;;;;;;;;;15.66;100.00;99773.09;4959136;28;19933;-74
2023/10/23 12:24:31;;;;;;;;;;;;;;;15.65;100.00;99772.25;4964517;28;20005;-74
2023/10/23 12:26:56;;;;;;;;;;;;;;;15.62;100.00;99767.25;4953240;28;19983;-74
2023/10/23 12:29:22;;;;;;;;;;;;;;;15.58;100.00;99760.63;4952810;28;19922;-75